createdAt,value
2023-02-24T00:00:08.066Z,46.70
2023-02-24T00:01:08.120Z,44.10
2023-02-24T00:02:08.185Z,46.90
2023-02-24T00:03:08.047Z,47.80
2023-02-24T00:04:08.058Z,48.60
2023-02-24T00:05:07.999Z,46.50
2023-02-24T00:06:08.048Z,47.30
2023-02-24T00:07:07.990Z,50.10
2023-02-24T00:08:07.970Z,45.00
2023-02-24T00:09:07.969Z,43.80
2023-02-24T00:10:07.968Z,46.80
2023-02-24T00:11:07.910Z,49.30
2023-02-24T00:12:07.911Z,47.20
2023-02-24T00:13:07.939Z,49.50
2023-02-24T00:14:07.890Z,47.80
2023-02-24T00:15:07.874Z,52.60
2023-02-24T00:16:07.982Z,52.30
2023-02-24T00:17:07.926Z,50.70
2023-02-24T00:18:07.884Z,53.60
2023-02-24T00:19:07.810Z,53.20
2023-02-24T00:20:07.823Z,51.20
2023-02-24T00:21:07.823Z,49.50
2023-02-24T00:22:07.806Z,50.50
2023-02-24T00:23:07.800Z,57.20
2023-02-24T00:24:07.748Z,56.40
2023-02-24T00:25:07.760Z,51.30
2023-02-24T00:26:07.786Z,52.90
2023-02-24T00:27:08.064Z,51.60
2023-02-24T00:28:07.700Z,55.50
2023-02-24T00:29:07.712Z,53.50
2023-02-24T00:30:07.736Z,50.90
2023-02-24T00:31:07.734Z,54.90
2023-02-24T00:32:08.063Z,55.20
2023-02-24T00:33:07.734Z,49.20
2023-02-24T00:34:07.622Z,54.40
2023-02-24T00:35:07.623Z,52.90
2023-02-24T00:36:07.592Z,51.30
2023-02-24T00:37:07.682Z,53.10
2023-02-24T00:38:07.584Z,54.40
2023-02-24T00:39:07.539Z,57.30
2023-02-24T00:40:07.598Z,57.90
2023-02-24T00:41:07.598Z,55.00
2023-02-24T00:42:07.513Z,53.00
2023-02-24T00:43:07.544Z,56.60
2023-02-24T00:44:07.485Z,56.40
2023-02-24T00:45:07.537Z,54.20
2023-02-24T00:46:07.529Z,55.60
2023-02-24T00:47:07.454Z,54.30
2023-02-24T00:48:07.445Z,51.20
2023-02-24T00:49:07.439Z,51.90
2023-02-24T00:50:07.449Z,57.60
2023-02-24T00:51:07.399Z,54.20
2023-02-24T00:52:07.401Z,55.00
2023-02-24T00:53:07.385Z,53.30
2023-02-24T00:54:07.365Z,55.80
2023-02-24T00:55:07.375Z,55.10
2023-02-24T00:56:07.348Z,60.00
2023-02-24T00:57:07.355Z,58.20
2023-02-24T00:58:07.395Z,54.60
2023-02-24T00:59:07.298Z,61.10
2023-02-24T01:00:07.346Z,54.90
2023-02-24T01:01:07.276Z,64.80
2023-02-24T01:02:07.520Z,60.60
2023-02-24T01:03:07.257Z,58.70
2023-02-24T01:04:07.240Z,55.60
2023-02-24T01:05:07.299Z,60.40
2023-02-24T01:06:07.212Z,59.40
2023-02-24T01:07:07.183Z,54.20
2023-02-24T01:08:07.234Z,58.20
2023-02-24T01:09:07.164Z,56.30
2023-02-24T01:10:07.180Z,58.80
2023-02-24T01:11:07.148Z,59.50
2023-02-24T01:12:07.185Z,53.40
2023-02-24T01:13:07.120Z,56.10
2023-02-24T01:14:07.097Z,54.40
2023-02-24T01:15:07.110Z,63.10
2023-02-24T01:16:07.171Z,61.80
2023-02-24T01:17:07.056Z,60.60
2023-02-24T01:18:07.045Z,60.30
2023-02-24T01:19:07.081Z,57.60
2023-02-24T01:20:07.052Z,55.60
2023-02-24T01:21:07.018Z,55.90
2023-02-24T01:22:06.997Z,56.50
2023-02-24T01:23:06.991Z,53.40
2023-02-24T01:24:07.069Z,65.70
2023-02-24T01:25:06.970Z,57.20
2023-02-24T01:26:06.999Z,60.60
2023-02-24T01:27:06.971Z,57.60
2023-02-24T01:28:06.932Z,59.00
2023-02-24T01:29:06.902Z,57.50
2023-02-24T01:30:06.888Z,55.40
2023-02-24T01:31:07.233Z,57.50
2023-02-24T01:32:07.033Z,58.00
2023-02-24T01:33:07.098Z,55.70
2023-02-24T01:34:06.856Z,62.30
2023-02-24T01:35:06.828Z,57.30
2023-02-24T01:36:06.909Z,57.90
2023-02-24T01:37:06.799Z,63.30
2023-02-24T01:38:06.795Z,58.90
2023-02-24T01:39:06.768Z,54.30
2023-02-24T01:40:06.821Z,62.50
2023-02-24T01:41:06.805Z,58.40
2023-02-24T01:42:06.759Z,62.60
2023-02-24T01:43:06.754Z,56.90
2023-02-24T01:44:06.722Z,60.50
2023-02-24T01:45:06.724Z,55.40
2023-02-24T01:46:06.734Z,58.70
2023-02-24T01:47:06.661Z,56.60
2023-02-24T01:48:06.699Z,56.10
2023-02-24T01:49:06.642Z,59.90
2023-02-24T01:50:06.668Z,59.80
2023-02-24T01:51:06.711Z,58.00
2023-02-24T01:52:06.607Z,58.10
2023-02-24T01:53:06.591Z,59.70
2023-02-24T01:54:06.641Z,60.60
2023-02-24T01:55:06.565Z,61.80
2023-02-24T01:56:06.602Z,60.80
2023-02-24T01:57:06.558Z,60.90
2023-02-24T01:58:06.570Z,62.10
2023-02-24T01:59:06.527Z,58.40
2023-02-24T02:00:06.537Z,56.40
2023-02-24T02:01:06.532Z,50.90
2023-02-24T02:02:06.628Z,56.70
2023-02-24T02:03:06.462Z,60.80
2023-02-24T02:04:06.448Z,58.70
2023-02-24T02:05:06.430Z,63.30
2023-02-24T02:06:06.472Z,51.30
2023-02-24T02:07:06.407Z,64.00
2023-02-24T02:08:06.399Z,58.50
2023-02-24T02:09:06.456Z,54.70
2023-02-24T02:10:06.422Z,53.10
2023-02-24T02:11:06.412Z,56.20
2023-02-24T02:12:06.403Z,59.60
2023-02-24T02:13:06.332Z,62.50
2023-02-24T02:14:06.416Z,59.30
2023-02-24T02:15:06.340Z,60.90
2023-02-24T02:16:06.391Z,57.70
2023-02-24T02:17:06.283Z,57.40
2023-02-24T02:18:06.271Z,59.00
2023-02-24T02:19:06.253Z,64.20
2023-02-24T02:20:06.252Z,57.80
2023-02-24T02:21:06.253Z,59.90
2023-02-24T02:22:06.268Z,61.00
2023-02-24T02:23:06.279Z,58.60
2023-02-24T02:24:06.185Z,56.60
2023-02-24T02:25:06.179Z,62.40
2023-02-24T02:26:06.233Z,56.50
2023-02-24T02:27:06.163Z,55.00
2023-02-24T02:28:06.150Z,56.70
2023-02-24T02:29:06.180Z,60.10
2023-02-24T02:30:06.112Z,61.60
2023-02-24T02:31:06.208Z,54.10
2023-02-24T02:32:06.188Z,58.60
2023-02-24T02:33:06.117Z,57.90
2023-02-24T02:34:06.080Z,58.10
2023-02-24T02:35:06.044Z,62.70
2023-02-24T02:36:06.037Z,56.30
2023-02-24T02:37:06.130Z,60.90
2023-02-24T02:38:06.007Z,59.20
2023-02-24T02:39:06.007Z,62.60
2023-02-24T02:40:05.983Z,63.90
2023-02-24T02:41:05.999Z,60.40
2023-02-24T02:42:05.989Z,56.50
2023-02-24T02:43:05.937Z,61.60
2023-02-24T02:44:05.922Z,56.50
2023-02-24T02:45:05.912Z,58.00
2023-02-24T02:46:05.943Z,55.10
2023-02-24T02:47:05.887Z,57.30
2023-02-24T02:48:05.898Z,63.30
2023-02-24T02:49:05.864Z,59.30
2023-02-24T02:50:05.853Z,60.30
2023-02-24T02:51:05.888Z,60.50
2023-02-24T02:52:05.880Z,64.80
2023-02-24T02:53:05.797Z,63.90
2023-02-24T02:54:05.825Z,58.70
2023-02-24T02:55:05.770Z,55.10
2023-02-24T02:56:05.783Z,56.40
2023-02-24T02:57:05.792Z,57.40
2023-02-24T02:58:05.815Z,60.60
2023-02-24T02:59:05.722Z,57.60
2023-02-24T03:00:05.720Z,61.70
2023-02-24T03:01:05.780Z,60.20
2023-02-24T03:02:05.690Z,55.20
2023-02-24T03:03:11.790Z,63.90
2023-02-24T03:04:05.703Z,62.20
2023-02-24T03:05:05.791Z,64.60
2023-02-24T03:06:05.660Z,60.10
2023-02-24T03:07:05.749Z,68.40
2023-02-24T03:08:05.749Z,60.70
2023-02-24T03:09:05.618Z,59.90
2023-02-24T03:10:05.668Z,62.20
2023-02-24T03:11:05.684Z,63.70
2023-02-24T03:12:05.715Z,60.00
2023-02-24T03:13:05.674Z,62.60
2023-02-24T03:14:05.559Z,63.90
2023-02-24T03:15:05.585Z,62.90
2023-02-24T03:16:05.558Z,57.70
2023-02-24T03:17:05.646Z,63.30
2023-02-24T03:18:05.484Z,63.10
2023-02-24T03:19:05.477Z,63.20
2023-02-24T03:20:05.462Z,61.90
2023-02-24T03:21:05.452Z,58.50
2023-02-24T03:22:05.421Z,57.10
2023-02-24T03:23:05.412Z,61.70
2023-02-24T03:24:05.431Z,61.50
2023-02-24T03:25:05.406Z,59.80
2023-02-24T03:26:05.369Z,62.50
2023-02-24T03:27:05.376Z,54.50
2023-02-24T03:28:05.378Z,60.70
2023-02-24T03:29:05.344Z,60.60
2023-02-24T03:30:05.315Z,62.90
2023-02-24T03:31:05.355Z,61.40
2023-02-24T03:32:05.468Z,53.00
2023-02-24T03:33:05.277Z,54.20
2023-02-24T03:34:05.311Z,57.80
2023-02-24T03:35:05.277Z,62.00
2023-02-24T03:36:05.248Z,61.10
2023-02-24T03:37:05.227Z,61.00
2023-02-24T03:38:05.239Z,50.50
2023-02-24T03:39:05.250Z,58.30
2023-02-24T03:40:05.232Z,59.90
2023-02-24T03:41:05.177Z,62.80
2023-02-24T03:42:05.173Z,56.80
2023-02-24T03:43:05.150Z,57.90
2023-02-24T03:44:05.170Z,61.80
2023-02-24T03:45:05.123Z,58.40
2023-02-24T03:46:05.178Z,58.60
2023-02-24T03:47:05.107Z,61.00
2023-02-24T03:48:05.083Z,56.70
2023-02-24T03:49:05.114Z,57.40
2023-02-24T03:50:05.060Z,57.60
2023-02-24T03:51:05.060Z,58.10
2023-02-24T03:52:05.029Z,54.80
2023-02-24T03:53:05.048Z,54.00
2023-02-24T03:54:05.044Z,52.40
2023-02-24T03:55:05.014Z,63.20
2023-02-24T03:56:04.977Z,54.90
2023-02-24T03:57:04.982Z,64.20
2023-02-24T03:58:04.992Z,58.70
2023-02-24T03:59:03.938Z,58.10
2023-02-24T04:00:04.953Z,60.50
2023-02-24T04:01:04.917Z,63.10
2023-02-24T04:02:04.941Z,60.10
2023-02-24T04:03:04.892Z,60.60
2023-02-24T04:04:04.867Z,56.80
2023-02-24T04:05:04.920Z,57.40
2023-02-24T04:06:04.846Z,56.80
2023-02-24T04:07:04.844Z,56.00
2023-02-24T04:08:04.820Z,58.30
2023-02-24T04:09:04.805Z,63.80
2023-02-24T04:10:04.826Z,57.00
2023-02-24T04:11:04.790Z,62.20
2023-02-24T04:12:04.765Z,60.60
2023-02-24T04:13:04.777Z,60.20
2023-02-24T04:14:04.740Z,63.00
2023-02-24T04:15:04.814Z,61.00
2023-02-24T04:16:04.778Z,53.20
2023-02-24T04:17:04.715Z,54.60
2023-02-24T04:18:04.701Z,58.90
2023-02-24T04:19:04.700Z,55.50
2023-02-24T04:20:04.676Z,62.30
2023-02-24T04:21:04.664Z,53.80
2023-02-24T04:22:04.631Z,53.30
2023-02-24T04:23:04.655Z,55.80
2023-02-24T04:24:04.597Z,60.20
2023-02-24T04:25:04.601Z,60.30
2023-02-24T04:26:04.585Z,59.00
2023-02-24T04:27:04.574Z,61.50
2023-02-24T04:28:04.595Z,54.40
2023-02-24T04:29:04.550Z,60.30
2023-02-24T04:30:04.559Z,55.10
2023-02-24T04:31:04.686Z,55.90
2023-02-24T04:32:04.660Z,55.70
2023-02-24T04:33:04.534Z,57.50
2023-02-24T04:34:04.504Z,61.70
2023-02-24T04:35:04.499Z,53.30
2023-02-24T04:36:04.458Z,52.20
2023-02-24T04:37:04.487Z,54.60
2023-02-24T04:38:04.488Z,50.50
2023-02-24T04:39:06.549Z,52.60
2023-02-24T04:40:04.474Z,54.10
2023-02-24T04:41:04.394Z,52.40
2023-02-24T04:42:04.370Z,50.70
2023-02-24T04:43:04.405Z,50.90
2023-02-24T04:44:04.346Z,48.60
2023-02-24T04:45:04.350Z,54.10
2023-02-24T04:46:04.342Z,55.40
2023-02-24T04:47:04.316Z,59.10
2023-02-24T04:48:04.296Z,55.00
2023-02-24T04:49:04.308Z,55.60
2023-02-24T04:50:04.287Z,54.40
2023-02-24T04:51:04.266Z,53.00
2023-02-24T04:52:04.248Z,51.40
2023-02-24T04:53:04.235Z,62.90
2023-02-24T04:54:04.247Z,48.00
2023-02-24T04:55:04.234Z,58.10
2023-02-24T04:56:04.190Z,54.10
2023-02-24T04:57:04.186Z,54.20
2023-02-24T04:58:04.169Z,57.40
2023-02-24T04:59:04.172Z,55.90
2023-02-24T05:00:04.135Z,56.40
2023-02-24T05:01:04.127Z,55.80
2023-02-24T05:02:04.121Z,56.30
2023-02-24T05:03:04.111Z,59.00
2023-02-24T05:04:04.203Z,55.50
2023-02-24T05:05:04.079Z,56.30
2023-02-24T05:06:04.072Z,51.90
2023-02-24T05:07:04.077Z,58.60
2023-02-24T05:08:04.049Z,57.50
2023-02-24T05:09:04.054Z,52.80
2023-02-24T05:10:04.017Z,52.10
2023-02-24T05:11:04.182Z,51.50
2023-02-24T05:12:03.988Z,56.40
2023-02-24T05:13:03.980Z,56.50
2023-02-24T05:14:03.967Z,53.60
2023-02-24T05:15:03.946Z,52.40
2023-02-24T05:16:03.969Z,53.00
2023-02-24T05:17:03.925Z,53.50
2023-02-24T05:18:03.905Z,51.10
2023-02-24T05:19:03.931Z,52.90
2023-02-24T05:20:03.895Z,50.60
2023-02-24T05:21:03.979Z,53.30
2023-02-24T05:22:03.883Z,57.60
2023-02-24T05:23:03.902Z,59.50
2023-02-24T05:24:03.973Z,57.60
2023-02-24T05:25:03.824Z,50.70
2023-02-24T05:26:03.819Z,58.30
2023-02-24T05:27:04.068Z,58.80
2023-02-24T05:28:03.872Z,55.40
2023-02-24T05:29:03.836Z,56.90
2023-02-24T05:30:03.768Z,55.70
2023-02-24T05:31:03.936Z,57.00
2023-02-24T05:32:03.921Z,51.50
2023-02-24T05:33:03.732Z,56.50
2023-02-24T05:34:03.730Z,50.10
2023-02-24T05:35:03.706Z,56.40
2023-02-24T05:36:05.279Z,51.90
2023-02-24T05:37:03.733Z,51.50
2023-02-24T05:38:03.656Z,50.90
2023-02-24T05:39:03.650Z,55.40
2023-02-24T05:40:04.080Z,52.00
2023-02-24T05:41:03.606Z,53.40
2023-02-24T05:42:03.653Z,49.10
2023-02-24T05:43:03.581Z,54.90
2023-02-24T05:44:03.729Z,51.30
2023-02-24T05:45:03.637Z,52.00
2023-02-24T05:46:03.616Z,53.90
2023-02-24T05:47:03.617Z,54.00
2023-02-24T05:48:03.508Z,54.60
2023-02-24T05:49:03.517Z,58.70
2023-02-24T05:50:03.489Z,51.40
2023-02-24T05:51:05.163Z,57.10
2023-02-24T05:52:03.476Z,48.80
2023-02-24T05:53:03.476Z,52.80
2023-02-24T05:54:03.425Z,55.10
2023-02-24T05:55:03.428Z,52.80
2023-02-24T05:56:03.415Z,52.50
2023-02-24T05:57:03.421Z,57.30
2023-02-24T05:58:03.324Z,52.20
2023-02-24T05:59:03.313Z,55.20
2023-02-24T06:00:03.297Z,56.80
2023-02-24T06:01:03.297Z,58.40
2023-02-24T06:02:03.415Z,52.80
2023-02-24T06:03:03.355Z,58.00
2023-02-24T06:04:03.245Z,52.80
2023-02-24T06:05:03.275Z,56.70
2023-02-24T06:06:03.243Z,52.00
2023-02-24T06:07:03.227Z,48.60
2023-02-24T06:08:03.201Z,53.80
2023-02-24T06:09:03.183Z,51.20
2023-02-24T06:10:03.166Z,47.60
2023-02-24T06:11:03.159Z,48.80
2023-02-24T06:12:03.197Z,53.60
2023-02-24T06:13:03.128Z,54.50
2023-02-24T06:14:03.127Z,53.00
2023-02-24T06:15:03.107Z,48.40
2023-02-24T06:16:03.099Z,50.60
2023-02-24T06:17:03.078Z,50.70
2023-02-24T06:18:03.075Z,58.10
2023-02-24T06:19:03.076Z,53.60
2023-02-24T06:20:03.044Z,55.50
2023-02-24T06:21:03.028Z,57.00
2023-02-24T06:22:03.008Z,55.40
2023-02-24T06:23:03.001Z,51.20
2023-02-24T06:24:03.031Z,56.20
2023-02-24T06:25:02.979Z,48.70
2023-02-24T06:26:02.959Z,54.30
2023-02-24T06:27:02.951Z,51.40
2023-02-24T06:28:02.931Z,55.40
2023-02-24T06:29:02.937Z,50.60
2023-02-24T06:30:02.911Z,54.80
2023-02-24T06:31:02.971Z,55.10
2023-02-24T06:32:03.000Z,52.40
2023-02-24T06:33:02.870Z,45.40
2023-02-24T06:34:02.890Z,50.30
2023-02-24T06:35:02.852Z,50.80
2023-02-24T06:36:02.829Z,51.80
2023-02-24T06:37:02.825Z,50.10
2023-02-24T06:38:02.805Z,49.00
2023-02-24T06:39:02.804Z,55.50
2023-02-24T06:40:02.797Z,50.60
2023-02-24T06:41:02.775Z,58.00
2023-02-24T06:42:02.753Z,58.80
2023-02-24T06:43:08.165Z,53.70
2023-02-24T06:44:02.730Z,53.50
2023-02-24T06:45:02.790Z,53.00
2023-02-24T06:46:02.905Z,53.60
2023-02-24T06:47:02.697Z,50.90
2023-02-24T06:48:02.679Z,53.30
2023-02-24T06:49:02.672Z,53.00
2023-02-24T06:50:02.685Z,53.50
2023-02-24T06:51:02.639Z,52.80
2023-02-24T06:52:02.812Z,55.10
2023-02-24T06:53:02.652Z,47.60
2023-02-24T06:54:02.621Z,54.50
2023-02-24T06:55:02.613Z,64.90
2023-02-24T06:56:02.569Z,57.30
2023-02-24T06:57:02.562Z,54.30
2023-02-24T06:58:02.565Z,52.20
2023-02-24T06:59:02.534Z,51.10
2023-02-24T07:00:02.538Z,57.30
2023-02-24T07:01:02.549Z,54.80
2023-02-24T07:02:02.529Z,53.80
2023-02-24T07:03:02.511Z,55.50
2023-02-24T07:04:02.580Z,49.80
2023-02-24T07:05:02.463Z,58.20
2023-02-24T07:06:02.443Z,56.30
2023-02-24T07:07:02.428Z,49.80
2023-02-24T07:08:02.437Z,56.60
2023-02-24T07:09:02.408Z,60.80
2023-02-24T07:10:02.393Z,55.20
2023-02-24T07:11:02.392Z,51.40
2023-02-24T07:12:02.373Z,55.20
2023-02-24T07:13:02.373Z,51.30
2023-02-24T07:14:02.340Z,59.20
2023-02-24T07:15:02.348Z,58.90
2023-02-24T07:16:02.312Z,56.30
2023-02-24T07:17:02.343Z,57.80
2023-02-24T07:18:02.281Z,53.30
2023-02-24T07:19:02.278Z,56.20
2023-02-24T07:20:02.322Z,61.70
2023-02-24T07:21:02.254Z,56.60
2023-02-24T07:22:02.275Z,57.90
2023-02-24T07:23:02.224Z,58.30
2023-02-24T07:24:02.222Z,51.00
2023-02-24T07:25:02.217Z,58.00
2023-02-24T07:26:02.181Z,54.40
2023-02-24T07:27:02.165Z,55.80
2023-02-24T07:28:02.152Z,61.50
2023-02-24T07:29:02.150Z,52.60
2023-02-24T07:30:02.191Z,55.10
2023-02-24T07:31:02.283Z,58.80
2023-02-24T07:32:02.198Z,55.90
2023-02-24T07:33:02.088Z,54.90
2023-02-24T07:34:02.066Z,57.40
2023-02-24T07:35:02.106Z,54.00
2023-02-24T07:36:02.039Z,49.80
2023-02-24T07:37:02.040Z,54.30
2023-02-24T07:38:02.033Z,54.60
2023-02-24T07:39:02.011Z,53.10
2023-02-24T07:40:02.034Z,56.60
2023-02-24T07:41:01.982Z,55.80
2023-02-24T07:42:01.962Z,63.10
2023-02-24T07:43:01.954Z,58.10
2023-02-24T07:44:01.953Z,51.00
2023-02-24T07:45:02.001Z,56.70
2023-02-24T07:46:01.917Z,53.90
2023-02-24T07:47:01.913Z,54.50
2023-02-24T07:48:01.888Z,53.70
2023-02-24T07:49:01.888Z,54.20
2023-02-24T07:50:01.862Z,54.30
2023-02-24T07:51:01.845Z,55.70
2023-02-24T07:52:01.841Z,54.60
2023-02-24T07:53:01.823Z,52.80
2023-02-24T07:54:01.829Z,49.20
2023-02-24T07:55:01.797Z,55.50
2023-02-24T07:56:01.789Z,54.20
2023-02-24T07:57:01.787Z,54.00
2023-02-24T07:58:01.765Z,54.10
2023-02-24T07:59:01.757Z,54.80
2023-02-24T08:00:01.743Z,57.90
2023-02-24T08:01:01.718Z,51.40
2023-02-24T08:02:01.700Z,53.90
2023-02-24T08:03:01.691Z,55.80
2023-02-24T08:04:01.677Z,54.90
2023-02-24T08:05:01.678Z,57.10
2023-02-24T08:06:01.646Z,52.80
2023-02-24T08:07:01.630Z,53.10
2023-02-24T08:08:01.623Z,57.10
2023-02-24T08:09:01.606Z,55.50
2023-02-24T08:10:01.656Z,51.80
2023-02-24T08:11:01.585Z,50.10
2023-02-24T08:12:01.590Z,53.30
2023-02-24T08:13:01.570Z,55.80
2023-02-24T08:14:01.556Z,55.90
2023-02-24T08:15:01.554Z,52.50
2023-02-24T08:16:01.564Z,61.80
2023-02-24T08:17:01.523Z,51.80
2023-02-24T08:18:01.507Z,56.10
2023-02-24T08:19:01.478Z,58.60
2023-02-24T08:20:01.534Z,53.30
2023-02-24T08:21:01.464Z,55.00
2023-02-24T08:22:01.444Z,57.40
2023-02-24T08:23:01.442Z,61.30
2023-02-24T08:24:01.425Z,58.70
2023-02-24T08:25:01.427Z,58.40
2023-02-24T08:26:01.405Z,58.60
2023-02-24T08:27:01.372Z,53.50
2023-02-24T08:28:08.025Z,54.70
2023-02-24T08:29:01.351Z,56.00
2023-02-24T08:30:01.369Z,53.30
2023-02-24T08:31:01.409Z,56.00
2023-02-24T08:32:01.415Z,52.80
2023-02-24T08:33:01.294Z,50.80
2023-02-24T08:34:01.283Z,50.90
2023-02-24T08:35:01.264Z,55.10
2023-02-24T08:36:01.937Z,54.30
2023-02-24T08:37:01.249Z,61.40
2023-02-24T08:38:01.236Z,58.30
2023-02-24T08:39:01.213Z,54.60
2023-02-24T08:40:01.194Z,53.00
2023-02-24T08:41:01.216Z,53.80
2023-02-24T08:42:01.195Z,53.20
2023-02-24T08:43:01.158Z,52.50
2023-02-24T08:44:01.154Z,49.20
2023-02-24T08:45:01.135Z,51.90
2023-02-24T08:46:01.167Z,53.40
2023-02-24T08:47:01.211Z,54.20
2023-02-24T08:48:01.106Z,55.60
2023-02-24T08:49:01.289Z,49.70
2023-02-24T08:50:01.084Z,46.70
2023-02-24T08:51:01.124Z,55.70
2023-02-24T08:52:01.059Z,47.40
2023-02-24T08:53:01.039Z,55.20
2023-02-24T08:54:01.105Z,53.20
2023-02-24T08:55:01.016Z,46.70
2023-02-24T08:56:01.020Z,50.80
2023-02-24T08:57:00.978Z,51.10
2023-02-24T08:58:00.980Z,47.20
2023-02-24T08:59:00.963Z,53.70
2023-02-24T09:00:01.031Z,45.50
2023-02-24T09:01:01.077Z,53.00
2023-02-24T09:02:04.752Z,44.10
2023-02-24T09:03:00.908Z,48.30
2023-02-24T09:04:07.419Z,47.40
2023-02-24T09:05:00.961Z,49.30
2023-02-24T09:06:00.938Z,46.20
2023-02-24T09:07:11.238Z,45.10
2023-02-24T09:08:00.865Z,50.10
2023-02-24T09:09:00.834Z,46.50
2023-02-24T09:10:01.028Z,51.20
2023-02-24T09:11:00.817Z,48.90
2023-02-24T09:12:00.840Z,48.40
2023-02-24T09:13:00.805Z,46.10
2023-02-24T09:14:00.777Z,48.80
2023-02-24T09:15:00.753Z,49.20
2023-02-24T09:16:00.887Z,47.50
2023-02-24T09:17:00.771Z,52.30
2023-02-24T09:18:00.735Z,51.60
2023-02-24T09:19:00.718Z,46.90
2023-02-24T09:20:00.796Z,43.70
2023-02-24T09:21:00.700Z,47.40
2023-02-24T09:22:01.824Z,49.20
2023-02-24T09:23:00.792Z,53.70
2023-02-24T09:24:00.752Z,49.60
2023-02-24T09:25:00.652Z,48.00
2023-02-24T09:26:00.669Z,47.60
2023-02-24T09:27:00.669Z,52.00
2023-02-24T09:28:00.584Z,51.90
2023-02-24T09:29:00.679Z,48.10
2023-02-24T09:30:00.598Z,47.50
2023-02-24T09:31:00.608Z,43.00
2023-02-24T09:32:00.766Z,53.30
2023-02-24T09:33:00.670Z,47.90
2023-02-24T09:34:00.590Z,51.20
2023-02-24T09:35:00.504Z,48.40
2023-02-24T09:36:00.536Z,46.30
2023-02-24T09:37:00.494Z,48.20
2023-02-24T09:38:00.522Z,48.10
2023-02-24T09:39:00.605Z,50.40
2023-02-24T09:40:00.461Z,48.90
2023-02-24T09:41:07.480Z,52.60
2023-02-24T09:42:00.431Z,52.40
2023-02-24T09:43:00.389Z,48.90
2023-02-24T09:44:00.372Z,47.20
2023-02-24T09:45:00.377Z,52.60
2023-02-24T09:46:00.568Z,51.00
2023-02-24T09:47:00.352Z,51.60
2023-02-24T09:48:00.374Z,53.00
2023-02-24T09:49:00.363Z,51.00
2023-02-24T09:50:00.830Z,49.10
2023-02-24T09:51:03.774Z,47.90
2023-02-24T09:52:00.474Z,48.30
2023-02-24T09:53:10.812Z,41.50
2023-02-24T09:54:00.316Z,50.80
2023-02-24T09:55:00.250Z,42.20
2023-02-24T09:56:00.361Z,44.40
2023-02-24T09:57:00.204Z,45.20
2023-02-24T09:58:00.221Z,46.90
2023-02-24T09:59:00.176Z,45.60
2023-02-24T10:00:00.194Z,45.50
2023-02-24T10:01:00.261Z,40.00
2023-02-24T10:02:00.222Z,40.80
2023-02-24T10:03:00.415Z,42.90
2023-02-24T10:04:02.354Z,46.60
2023-02-24T10:05:00.109Z,45.80
2023-02-24T10:06:00.119Z,46.10
2023-02-24T10:07:00.150Z,41.50
2023-02-24T10:08:00.128Z,44.60
2023-02-24T10:09:00.106Z,46.90
2023-02-24T10:10:00.027Z,42.40
2023-02-24T10:11:00.094Z,40.60
2023-02-24T10:12:00.059Z,43.70
2023-02-24T10:13:00.043Z,45.20
2023-02-24T10:14:07.176Z,43.60
2023-02-24T10:15:00.947Z,46.70
2023-02-24T10:16:05.929Z,45.00
2023-02-24T10:17:00.018Z,43.50
2023-02-24T10:18:00.019Z,40.00
2023-02-24T10:18:59.922Z,39.30
2023-02-24T10:19:59.984Z,38.70
2023-02-24T10:20:59.920Z,42.20
2023-02-24T10:21:59.890Z,38.20
2023-02-24T10:22:59.932Z,34.60
2023-02-24T10:23:59.860Z,37.20
2023-02-24T10:24:59.896Z,39.50
2023-02-24T10:25:59.896Z,35.70
2023-02-24T10:27:07.373Z,34.20
2023-02-24T10:27:59.820Z,36.10
2023-02-24T10:28:59.895Z,36.00
2023-02-24T10:29:59.776Z,37.70
2023-02-24T10:30:59.878Z,37.90
2023-02-24T10:32:00.013Z,38.50
2023-02-24T10:32:59.774Z,40.30
2023-02-24T10:33:59.783Z,40.00
2023-02-24T10:34:59.694Z,43.70
2023-02-24T10:35:59.763Z,35.60
2023-02-24T10:36:59.696Z,38.80
2023-02-24T10:37:59.667Z,43.40
2023-02-24T10:38:59.651Z,36.90
2023-02-24T10:39:59.664Z,43.30
2023-02-24T10:40:59.630Z,40.10
2023-02-24T10:41:59.772Z,38.70
2023-02-24T10:42:59.587Z,37.30
2023-02-24T10:43:59.783Z,39.80
2023-02-24T10:45:02.552Z,43.30
2023-02-24T10:45:59.616Z,37.80
2023-02-24T10:46:59.771Z,35.30
2023-02-24T10:47:59.546Z,38.80
2023-02-24T10:48:59.511Z,37.00
2023-02-24T10:49:59.527Z,33.50
2023-02-24T10:50:59.493Z,38.10
2023-02-24T10:51:59.503Z,36.30
2023-02-24T10:52:59.501Z,32.20
2023-02-24T10:53:59.464Z,36.10
2023-02-24T10:54:59.435Z,37.90
2023-02-24T10:55:59.423Z,38.40
2023-02-24T10:56:59.400Z,35.00
2023-02-24T10:57:59.635Z,33.10
2023-02-24T10:59:01.522Z,35.80
2023-02-24T10:59:59.382Z,34.80
2023-02-24T11:00:59.396Z,31.90
2023-02-24T11:01:59.420Z,36.90
2023-02-24T11:02:59.340Z,34.60
2023-02-24T11:03:59.310Z,33.80
2023-02-24T11:05:00.084Z,38.60
2023-02-24T11:05:59.306Z,34.20
2023-02-24T11:06:59.440Z,32.70
2023-02-24T11:07:59.263Z,36.50
2023-02-24T11:08:59.345Z,32.40
2023-02-24T11:09:59.243Z,39.50
2023-02-24T11:10:59.302Z,30.30
2023-02-24T11:11:59.217Z,24.90
2023-02-24T11:13:08.988Z,24.60
2023-02-24T11:13:59.224Z,19.20
2023-02-24T11:14:59.183Z,22.90
2023-02-24T11:15:59.205Z,20.20
2023-02-24T11:16:59.233Z,20.70
2023-02-24T11:17:59.215Z,19.10
2023-02-24T11:18:59.107Z,24.40
2023-02-24T11:19:59.109Z,22.30
2023-02-24T11:20:59.122Z,25.20
2023-02-24T11:21:59.063Z,21.50
2023-02-24T11:22:59.077Z,25.40
2023-02-24T11:23:59.098Z,24.70
2023-02-24T11:25:01.509Z,24.50
2023-02-24T11:25:59.026Z,19.30
2023-02-24T11:26:58.997Z,19.00
2023-02-24T11:27:59.094Z,20.00
2023-02-24T11:28:59.001Z,22.30
2023-02-24T11:29:59.021Z,19.20
2023-02-24T11:30:59.073Z,20.60
2023-02-24T11:31:59.106Z,20.40
2023-02-24T11:32:58.999Z,19.90
2023-02-24T11:33:58.915Z,19.40
2023-02-24T11:34:58.922Z,17.40
2023-02-24T11:35:58.877Z,19.60
2023-02-24T11:36:58.880Z,19.10
2023-02-24T11:37:58.848Z,17.30
2023-02-24T11:39:15.253Z,16.80
2023-02-24T11:39:59.022Z,19.90
2023-02-24T11:40:58.830Z,21.40
2023-02-24T11:41:58.819Z,21.70
2023-02-24T11:42:58.810Z,17.50
2023-02-24T11:43:58.769Z,21.20
2023-02-24T11:44:58.851Z,19.10
2023-02-24T11:45:58.803Z,13.60
2023-02-24T11:46:58.795Z,14.80
2023-02-24T11:47:58.736Z,17.40
2023-02-24T11:48:58.721Z,14.80
2023-02-24T11:49:58.691Z,12.50
2023-02-24T11:50:58.733Z,16.70
2023-02-24T11:51:58.664Z,14.10
2023-02-24T11:52:58.648Z,15.00
2023-02-24T11:53:58.845Z,13.60
2023-02-24T11:54:58.623Z,12.20
2023-02-24T11:55:59.347Z,14.60
2023-02-24T11:56:58.600Z,14.90
2023-02-24T11:57:58.587Z,16.60
2023-02-24T11:58:58.682Z,13.20
2023-02-24T11:59:58.625Z,13.80
2023-02-24T12:00:58.552Z,15.70
2023-02-24T12:01:58.650Z,16.90
2023-02-24T12:02:58.575Z,15.90
2023-02-24T12:03:58.516Z,19.50
2023-02-24T12:04:58.485Z,15.00
2023-02-24T12:05:58.604Z,16.00
2023-02-24T12:06:58.455Z,17.60
2023-02-24T12:07:58.450Z,15.40
2023-02-24T12:08:58.493Z,19.50
2023-02-24T12:10:14.120Z,15.70
2023-02-24T12:10:58.485Z,18.00
2023-02-24T12:11:58.411Z,16.50
2023-02-24T12:12:58.385Z,17.00
2023-02-24T12:13:58.369Z,13.80
2023-02-24T12:14:58.366Z,13.70
2023-02-24T12:15:58.419Z,15.80
2023-02-24T12:16:58.328Z,16.90
2023-02-24T12:17:58.374Z,16.20
2023-02-24T12:18:58.310Z,16.70
2023-02-24T12:19:58.299Z,15.80
2023-02-24T12:20:58.308Z,16.00
2023-02-24T12:21:58.277Z,16.00
2023-02-24T12:22:58.265Z,18.30
2023-02-24T12:23:58.238Z,12.40
2023-02-24T12:24:58.329Z,14.10
2023-02-24T12:25:58.238Z,15.70
2023-02-24T12:26:58.245Z,14.80
2023-02-24T12:27:58.184Z,13.80
2023-02-24T12:28:58.191Z,12.20
2023-02-24T12:29:58.191Z,12.90
2023-02-24T12:30:58.176Z,15.60
2023-02-24T12:31:58.326Z,16.50
2023-02-24T12:32:58.186Z,13.60
2023-02-24T12:33:58.120Z,13.60
2023-02-24T12:34:58.094Z,16.10
2023-02-24T12:35:58.096Z,14.60
2023-02-24T12:36:58.067Z,13.30
2023-02-24T12:37:58.048Z,14.00
2023-02-24T12:38:58.094Z,12.20
2023-02-24T12:39:58.029Z,17.30
2023-02-24T12:40:58.012Z,16.40
2023-02-24T12:41:57.990Z,15.20
2023-02-24T12:42:58.029Z,13.60
2023-02-24T12:43:57.985Z,15.60
2023-02-24T12:44:57.975Z,13.40
2023-02-24T12:45:57.968Z,17.10
2023-02-24T12:46:58.009Z,12.70
2023-02-24T12:47:57.912Z,12.60
2023-02-24T12:48:57.904Z,14.70
2023-02-24T12:49:57.889Z,15.20
2023-02-24T12:50:57.891Z,13.50
2023-02-24T12:51:57.901Z,17.30